createdAt,value
2023-12-03T00:00:49.897Z,10.87
2023-12-03T00:03:16.774Z,11.10
2023-12-03T00:05:43.633Z,10.90
2023-12-03T00:08:10.391Z,10.00
2023-12-03T00:10:36.999Z,10.13
2023-12-03T00:13:03.583Z,9.50
2023-12-03T00:15:30.206Z,10.27
2023-12-03T00:17:56.984Z,11.23
2023-12-03T00:20:23.821Z,9.20
2023-12-03T00:22:50.676Z,9.73
2023-12-03T00:25:17.306Z,10.40
2023-12-03T00:27:44.400Z,10.43
2023-12-03T00:30:11.738Z,9.50
2023-12-03T00:32:38.324Z,10.00
2023-12-03T00:35:05.536Z,10.87
2023-12-03T00:37:32.352Z,11.30
2023-12-03T00:39:58.950Z,11.20
2023-12-03T00:42:25.608Z,11.50
2023-12-03T00:44:52.206Z,10.73
2023-12-03T00:47:19.252Z,10.23
2023-12-03T00:49:46.122Z,10.90
2023-12-03T00:52:13.005Z,9.97
2023-12-03T00:54:39.635Z,11.40
2023-12-03T00:57:06.225Z,11.20
2023-12-03T00:59:32.828Z,10.20
2023-12-03T01:01:59.467Z,12.97
2023-12-03T01:04:26.116Z,10.70
2023-12-03T01:06:52.940Z,10.20
2023-12-03T01:09:19.570Z,11.03
2023-12-03T01:11:46.126Z,10.90
2023-12-03T01:14:12.757Z,11.70
2023-12-03T01:16:39.322Z,11.60
2023-12-03T01:19:06.041Z,10.20
2023-12-03T01:21:32.829Z,11.20
2023-12-03T01:23:59.574Z,9.53
2023-12-03T01:26:26.114Z,11.13
2023-12-03T01:28:53.983Z,11.13
2023-12-03T01:31:20.664Z,11.40
2023-12-03T01:33:47.645Z,12.00
2023-12-03T01:36:14.361Z,12.83
2023-12-03T01:38:41.365Z,11.93
2023-12-03T01:41:08.301Z,12.40
2023-12-03T01:43:47.304Z,12.20
2023-12-03T01:46:14.824Z,11.20
2023-12-03T01:48:41.414Z,11.47
2023-12-03T01:51:08.403Z,11.80
2023-12-03T01:53:36.373Z,11.03
2023-12-03T01:56:04.059Z,11.60
2023-12-03T01:58:30.717Z,10.63
2023-12-03T02:00:57.494Z,12.17
2023-12-03T02:03:25.811Z,10.77
2023-12-03T02:06:07.215Z,10.23
2023-12-03T02:08:34.924Z,11.17
2023-12-03T02:11:03.862Z,10.53
2023-12-03T02:13:34.543Z,12.83
2023-12-03T02:16:01.466Z,10.33
2023-12-03T02:18:28.277Z,11.00
2023-12-03T02:20:56.012Z,12.03
2023-12-03T02:23:22.922Z,12.67
2023-12-03T02:25:52.081Z,12.73
2023-12-03T02:28:19.233Z,10.83
2023-12-03T02:30:45.917Z,12.13
2023-12-03T02:33:12.714Z,10.80
2023-12-03T02:35:39.367Z,11.80
2023-12-03T02:38:05.967Z,11.30
2023-12-03T02:40:36.324Z,11.17
2023-12-03T02:43:02.954Z,11.53
2023-12-03T02:45:29.572Z,11.00
2023-12-03T02:47:56.223Z,9.80
2023-12-03T02:50:22.793Z,11.00
2023-12-03T02:52:49.388Z,12.20
2023-12-03T02:55:16.228Z,11.43
2023-12-03T02:57:42.843Z,11.30
2023-12-03T03:00:10.287Z,12.77
2023-12-03T03:02:38.346Z,11.60
2023-12-03T03:05:06.395Z,11.00
2023-12-03T03:07:33.083Z,11.40
2023-12-03T03:09:59.662Z,10.73
2023-12-03T03:12:26.237Z,11.87
2023-12-03T03:14:52.837Z,12.73
2023-12-03T03:17:19.376Z,11.17
2023-12-03T03:19:46.124Z,11.47
2023-12-03T03:22:13.617Z,10.80
2023-12-03T03:24:43.513Z,11.47
2023-12-03T03:27:10.242Z,10.70
2023-12-03T03:29:37.250Z,12.00
2023-12-03T03:32:04.073Z,11.50
2023-12-03T03:34:30.788Z,12.20
2023-12-03T03:36:57.506Z,11.97
2023-12-03T03:39:24.059Z,11.23
2023-12-03T03:41:50.652Z,10.80
2023-12-03T03:44:17.225Z,11.37
2023-12-03T03:46:43.802Z,10.10
2023-12-03T03:49:10.837Z,11.50
2023-12-03T03:51:37.469Z,12.43
2023-12-03T03:54:04.198Z,10.50
2023-12-03T03:56:31.070Z,11.40
2023-12-03T03:58:57.701Z,12.50
2023-12-03T04:01:24.399Z,11.73
2023-12-03T04:03:51.166Z,10.90
2023-12-03T04:06:18.058Z,10.83
2023-12-03T04:08:44.769Z,11.77
2023-12-03T04:11:11.344Z,12.17
2023-12-03T04:13:38.598Z,12.07
2023-12-03T04:16:05.613Z,11.40
2023-12-03T04:18:32.428Z,11.90
2023-12-03T04:20:59.245Z,12.70
2023-12-03T04:23:25.839Z,11.30
2023-12-03T04:25:52.588Z,11.47
2023-12-03T04:28:19.200Z,12.23
2023-12-03T04:30:45.973Z,11.17
2023-12-03T04:33:13.671Z,11.70
2023-12-03T04:35:40.522Z,12.80
2023-12-03T04:38:07.222Z,10.90
2023-12-03T04:40:33.862Z,11.80
2023-12-03T04:43:00.499Z,11.50
2023-12-03T04:45:27.154Z,12.00
2023-12-03T04:47:53.802Z,11.40
2023-12-03T04:50:20.364Z,11.07
2023-12-03T04:52:46.931Z,11.83
2023-12-03T04:55:13.588Z,10.97
2023-12-03T04:57:40.197Z,11.20
2023-12-03T05:00:08.576Z,12.77
2023-12-03T05:02:35.272Z,11.80
2023-12-03T05:05:01.867Z,13.93
2023-12-03T05:07:28.497Z,12.83
2023-12-03T05:09:55.183Z,11.67
2023-12-03T05:12:21.813Z,12.43
2023-12-03T05:14:48.418Z,12.10
2023-12-03T05:17:14.989Z,12.10
2023-12-03T05:19:43.608Z,12.60
2023-12-03T05:22:10.748Z,11.40
2023-12-03T05:24:37.525Z,13.47
2023-12-03T05:27:04.428Z,12.60
2023-12-03T05:29:31.743Z,13.20
2023-12-03T05:31:58.417Z,12.00
2023-12-03T05:34:25.451Z,12.77
2023-12-03T05:36:54.726Z,13.30
2023-12-03T05:39:22.397Z,13.20
2023-12-03T05:41:49.154Z,13.40
2023-12-03T05:44:15.812Z,13.03
2023-12-03T05:46:45.399Z,12.23
2023-12-03T05:49:12.206Z,13.10
2023-12-03T05:51:43.736Z,13.40
2023-12-03T05:54:10.342Z,13.53
2023-12-03T05:56:36.969Z,12.77
2023-12-03T05:59:03.686Z,12.60
2023-12-03T06:01:31.287Z,13.40
2023-12-03T06:03:57.936Z,13.03
2023-12-03T06:06:24.623Z,13.43
2023-12-03T06:08:51.276Z,12.73
2023-12-03T06:11:17.845Z,12.37
2023-12-03T06:13:44.436Z,12.30
2023-12-03T06:16:11.373Z,14.93
2023-12-03T06:18:38.019Z,12.70
2023-12-03T06:21:05.253Z,14.77
2023-12-03T06:23:31.828Z,13.63
2023-12-03T06:25:58.583Z,14.00
2023-12-03T06:28:25.316Z,13.53
2023-12-03T06:30:52.032Z,13.57
2023-12-03T06:33:23.988Z,13.30
2023-12-03T06:35:52.221Z,13.17
2023-12-03T06:38:18.874Z,14.00
2023-12-03T06:40:46.126Z,13.77
2023-12-03T06:43:12.704Z,12.17
2023-12-03T06:45:39.445Z,13.77
2023-12-03T06:48:06.662Z,12.30
2023-12-03T06:50:34.744Z,14.43
2023-12-03T06:53:02.164Z,13.97
2023-12-03T06:55:29.259Z,14.70
2023-12-03T06:57:55.966Z,13.00
2023-12-03T07:00:24.680Z,13.30
2023-12-03T07:02:51.520Z,14.27
2023-12-03T07:05:18.596Z,12.37
2023-12-03T07:07:52.305Z,13.80
2023-12-03T07:10:19.969Z,13.50
2023-12-03T07:12:46.910Z,13.57
2023-12-03T07:15:13.853Z,13.00
2023-12-03T07:17:41.231Z,12.60
2023-12-03T07:20:09.022Z,14.57
2023-12-03T07:22:35.672Z,13.97
2023-12-03T07:25:03.975Z,13.03
2023-12-03T07:27:30.577Z,14.70
2023-12-03T07:29:57.602Z,13.60
2023-12-03T07:32:24.805Z,13.10
2023-12-03T07:34:51.383Z,11.27
2023-12-03T07:37:18.011Z,13.80
2023-12-03T07:39:44.840Z,12.93
2023-12-03T07:42:11.517Z,13.53
2023-12-03T07:44:38.477Z,14.70
2023-12-03T07:47:05.307Z,13.20
2023-12-03T07:49:32.099Z,12.93
2023-12-03T07:51:58.865Z,12.20
2023-12-03T07:54:25.573Z,13.00
2023-12-03T07:56:52.248Z,12.53
2023-12-03T07:59:18.811Z,11.97
2023-12-03T08:01:45.686Z,13.30
2023-12-03T08:04:12.292Z,13.90
2023-12-03T08:06:38.958Z,13.60
2023-12-03T08:09:06.465Z,13.60
2023-12-03T08:11:33.120Z,14.00
2023-12-03T08:13:59.661Z,14.07
2023-12-03T08:16:27.166Z,13.57
2023-12-03T08:18:53.852Z,13.10
2023-12-03T08:21:20.594Z,14.20
2023-12-03T08:23:47.226Z,14.30
2023-12-03T08:26:14.056Z,12.60
2023-12-03T08:28:40.680Z,12.80
2023-12-03T08:31:08.968Z,13.50
2023-12-03T08:33:35.635Z,12.53
2023-12-03T08:36:02.307Z,13.70
2023-12-03T08:38:29.027Z,13.80
2023-12-03T08:40:55.682Z,14.97
2023-12-03T08:43:22.472Z,16.20
2023-12-03T08:45:49.201Z,16.00
2023-12-03T08:48:17.555Z,13.40
2023-12-03T08:50:44.319Z,15.20
2023-12-03T08:53:11.134Z,13.70
2023-12-03T08:55:37.794Z,14.17
2023-12-03T08:58:06.926Z,13.40
2023-12-03T09:00:33.651Z,14.77
2023-12-03T09:03:00.370Z,14.70
2023-12-03T09:05:27.021Z,14.40
2023-12-03T09:07:53.689Z,12.70
2023-12-03T09:10:20.973Z,13.67
2023-12-03T09:12:47.674Z,13.83
2023-12-03T09:15:14.502Z,13.60
2023-12-03T09:17:41.184Z,13.90
2023-12-03T09:20:08.439Z,12.83
2023-12-03T09:22:35.185Z,14.23
2023-12-03T09:25:01.817Z,21.57
2023-12-03T09:27:28.723Z,15.80
2023-12-03T09:29:55.367Z,16.80
2023-12-03T09:32:21.938Z,17.47
2023-12-03T09:34:48.493Z,18.13
2023-12-03T09:37:15.121Z,15.83
2023-12-03T09:39:41.771Z,14.30
2023-12-03T09:42:10.783Z,16.30
2023-12-03T09:44:57.783Z,16.33
2023-12-03T09:47:25.369Z,16.70
2023-12-03T09:49:55.375Z,15.37
2023-12-03T09:52:23.125Z,15.27
2023-12-03T09:54:50.121Z,14.10
2023-12-03T09:57:16.810Z,13.30
2023-12-03T09:59:50.062Z,14.53
2023-12-03T10:02:18.236Z,13.83
2023-12-03T10:04:45.511Z,14.73
2023-12-03T10:07:13.115Z,13.63
2023-12-03T10:09:43.691Z,14.83
2023-12-03T10:12:16.331Z,13.63
2023-12-03T10:14:43.244Z,15.10
2023-12-03T10:17:09.826Z,15.30
2023-12-03T10:19:36.726Z,14.57
2023-12-03T10:22:04.191Z,15.43
2023-12-03T10:24:30.810Z,14.07
2023-12-03T10:26:58.041Z,15.50
2023-12-03T10:29:24.792Z,15.63
2023-12-03T10:31:52.210Z,14.57
2023-12-03T10:34:19.384Z,14.40
2023-12-03T10:36:46.106Z,13.37
2023-12-03T10:39:18.700Z,16.07
2023-12-03T10:41:47.247Z,15.13
2023-12-03T10:44:17.701Z,16.73
2023-12-03T10:46:45.407Z,15.80
2023-12-03T10:49:13.660Z,15.87
2023-12-03T10:51:45.410Z,15.60
2023-12-03T10:54:12.404Z,14.97
2023-12-03T10:56:41.198Z,14.10
2023-12-03T10:59:13.173Z,14.87
2023-12-03T11:01:44.166Z,14.17
2023-12-03T11:04:28.206Z,14.30
2023-12-03T11:06:56.686Z,15.50
2023-12-03T11:09:25.574Z,17.63
2023-12-03T11:11:54.549Z,16.73
2023-12-03T11:14:21.335Z,16.10
2023-12-03T11:17:09.222Z,16.90
2023-12-03T11:19:47.433Z,15.93
2023-12-03T11:22:33.193Z,16.13
2023-12-03T11:25:19.655Z,16.60
2023-12-03T11:27:47.067Z,17.70
2023-12-03T11:30:15.083Z,16.93
2023-12-03T11:32:48.090Z,16.63
2023-12-03T11:35:18.991Z,16.57
2023-12-03T11:37:46.985Z,15.80
2023-12-03T11:40:15.176Z,19.07
2023-12-03T11:42:46.258Z,19.30
2023-12-03T11:45:24.837Z,16.87
2023-12-03T11:48:08.497Z,17.17
2023-12-03T11:50:44.069Z,18.30
2023-12-03T11:53:14.465Z,16.80
2023-12-03T11:55:42.834Z,16.57
2023-12-03T11:58:10.025Z,14.93
2023-12-03T12:00:38.338Z,19.40
2023-12-03T12:03:06.839Z,17.87
2023-12-03T12:05:33.957Z,17.70
2023-12-03T12:08:05.893Z,16.77
2023-12-03T12:10:34.077Z,16.43
2023-12-03T12:13:05.046Z,17.03
2023-12-03T12:15:32.597Z,14.90
2023-12-03T12:17:59.480Z,15.50
2023-12-03T12:20:27.526Z,13.73
2023-12-03T12:22:55.047Z,13.50
2023-12-03T12:25:24.172Z,13.27
2023-12-03T12:27:52.315Z,13.50
2023-12-03T12:30:34.529Z,13.73
2023-12-03T12:33:05.544Z,12.80
2023-12-03T12:35:33.262Z,12.63
2023-12-03T12:38:05.028Z,12.60
2023-12-03T12:40:33.619Z,13.50
2023-12-03T12:43:09.521Z,13.47
2023-12-03T12:45:37.551Z,11.87
2023-12-03T12:48:04.498Z,12.60
2023-12-03T12:50:38.142Z,12.97
2023-12-03T12:53:07.195Z,12.77
2023-12-03T12:55:35.965Z,12.03
2023-12-03T12:58:09.027Z,12.23
2023-12-03T13:00:36.259Z,11.40
2023-12-03T13:03:03.588Z,14.13
2023-12-03T13:05:30.670Z,13.80
2023-12-03T13:07:57.485Z,12.90
2023-12-03T13:10:24.437Z,12.43
2023-12-03T13:12:51.204Z,10.10
2023-12-03T13:15:19.276Z,8.77
2023-12-03T13:17:50.324Z,9.20
2023-12-03T13:20:17.492Z,10.03
2023-12-03T13:22:45.631Z,7.90
2023-12-03T13:25:12.950Z,8.50
2023-12-03T13:27:40.187Z,8.80
2023-12-03T13:30:07.423Z,9.33
2023-12-03T13:32:34.500Z,13.43
2023-12-03T13:35:05.528Z,24.93
2023-12-03T13:37:33.358Z,12.93
2023-12-03T13:40:00.665Z,7.80
2023-12-03T13:42:28.045Z,8.80
2023-12-03T13:44:54.629Z,7.80
2023-12-03T13:47:21.216Z,8.40
2023-12-03T13:49:47.793Z,10.20
2023-12-03T13:52:14.402Z,9.00
2023-12-03T13:54:40.950Z,11.40
2023-12-03T13:57:07.530Z,9.27
2023-12-03T13:59:34.586Z,8.50
2023-12-03T14:02:01.813Z,9.83
2023-12-03T14:04:28.788Z,9.77
2023-12-03T14:06:56.253Z,9.10
2023-12-03T14:09:22.845Z,10.20
2023-12-03T14:11:50.454Z,9.23
2023-12-03T14:14:19.654Z,9.37
2023-12-03T14:16:58.748Z,8.97
2023-12-03T14:19:26.255Z,9.87
2023-12-03T14:21:54.302Z,10.40
2023-12-03T14:24:21.693Z,9.27
2023-12-03T14:26:48.332Z,9.70
2023-12-03T14:29:15.033Z,9.47
2023-12-03T14:31:42.542Z,10.27
2023-12-03T14:34:09.554Z,8.10
2023-12-03T14:36:36.662Z,8.47
2023-12-03T14:39:03.421Z,8.07
2023-12-03T14:41:29.978Z,8.20
2023-12-03T14:43:56.820Z,7.67
2023-12-03T14:46:25.297Z,7.77
2023-12-03T14:48:52.207Z,8.10
2023-12-03T14:51:20.313Z,7.20
2023-12-03T14:53:48.272Z,7.17
2023-12-03T14:56:24.115Z,7.90
2023-12-03T14:58:51.409Z,7.70
2023-12-03T15:01:29.508Z,10.40
2023-12-03T15:03:56.257Z,9.27
2023-12-03T15:06:23.040Z,8.40
2023-12-03T15:08:50.702Z,9.20
2023-12-03T15:11:17.944Z,8.80
2023-12-03T15:13:48.259Z,9.53
2023-12-03T15:16:15.266Z,9.20
2023-12-03T15:18:45.304Z,12.50
2023-12-03T15:21:12.490Z,8.33
2023-12-03T15:23:41.829Z,9.23
2023-12-03T15:26:10.203Z,8.57
2023-12-03T15:28:37.189Z,7.53
2023-12-03T15:31:04.003Z,9.00
2023-12-03T15:33:30.703Z,8.70
2023-12-03T15:35:57.317Z,8.63
2023-12-03T15:38:23.905Z,8.43
2023-12-03T15:40:51.122Z,8.80
2023-12-03T15:43:23.367Z,11.63
2023-12-03T15:45:56.523Z,9.13
2023-12-03T15:48:23.233Z,10.27
2023-12-03T15:50:49.856Z,9.00
2023-12-03T15:53:16.522Z,11.37
2023-12-03T15:55:43.993Z,10.20
2023-12-03T15:58:10.928Z,11.47
2023-12-03T16:00:39.422Z,10.83
2023-12-03T16:03:06.200Z,9.90
2023-12-03T16:05:32.922Z,9.47
2023-12-03T16:08:00.265Z,10.90
2023-12-03T16:10:27.629Z,10.27
2023-12-03T16:12:55.223Z,9.73
2023-12-03T16:15:22.939Z,8.90
2023-12-03T16:17:52.024Z,10.43
2023-12-03T16:20:19.170Z,10.00
2023-12-03T16:22:45.919Z,8.87
2023-12-03T16:25:12.640Z,9.70
2023-12-03T16:27:39.409Z,10.37
2023-12-03T16:30:07.064Z,10.50
2023-12-03T16:32:33.949Z,11.63
2023-12-03T16:35:00.690Z,11.87
2023-12-03T16:37:27.261Z,12.03
2023-12-03T16:39:53.920Z,10.90
2023-12-03T16:42:20.861Z,12.10
2023-12-03T16:44:48.544Z,13.30
2023-12-03T16:47:15.143Z,12.90
2023-12-03T16:49:43.902Z,14.70
2023-12-03T16:52:11.242Z,12.87
2023-12-03T16:54:37.909Z,14.77
2023-12-03T16:57:06.536Z,12.87
2023-12-03T16:59:33.167Z,13.57
2023-12-03T17:01:59.946Z,13.83
2023-12-03T17:04:28.026Z,15.67
2023-12-03T17:06:56.840Z,14.10
2023-12-03T17:09:23.530Z,13.37
2023-12-03T17:11:50.161Z,13.67
2023-12-03T17:14:16.712Z,13.87
2023-12-03T17:16:43.684Z,14.23
2023-12-03T17:19:10.370Z,15.63
2023-12-03T17:21:36.973Z,14.40
2023-12-03T17:24:05.114Z,15.00
2023-12-03T17:26:32.560Z,13.97
2023-12-03T17:28:59.378Z,14.93
2023-12-03T17:31:25.918Z,13.10
2023-12-03T17:33:53.015Z,14.27
2023-12-03T17:36:20.250Z,15.77
2023-12-03T17:38:46.834Z,15.07
2023-12-03T17:41:13.648Z,14.90
2023-12-03T17:43:40.250Z,14.13
2023-12-03T17:46:07.156Z,14.97
2023-12-03T17:48:33.882Z,13.70
2023-12-03T17:51:00.790Z,13.57
2023-12-03T17:53:27.442Z,15.70
2023-12-03T17:55:54.251Z,16.53
2023-12-03T17:58:20.912Z,15.60
2023-12-03T18:00:49.227Z,16.50
2023-12-03T18:03:16.442Z,16.47
2023-12-03T18:05:43.718Z,18.10
2023-12-03T18:08:10.378Z,16.00
2023-12-03T18:10:37.240Z,17.80
2023-12-03T18:13:04.067Z,14.70
2023-12-03T18:15:33.631Z,14.40
2023-12-03T18:18:02.272Z,13.73
2023-12-03T18:20:29.678Z,13.00
2023-12-03T18:22:56.633Z,14.07
2023-12-03T18:25:23.288Z,15.53
2023-12-03T18:27:50.224Z,15.10
2023-12-03T18:30:17.269Z,16.83
2023-12-03T18:32:44.204Z,16.77
2023-12-03T18:35:10.927Z,17.73
2023-12-03T18:37:38.252Z,16.93
2023-12-03T18:40:05.775Z,15.23
2023-12-03T18:42:32.669Z,14.57
2023-12-03T18:45:00.888Z,13.37
2023-12-03T18:47:27.576Z,17.30
2023-12-03T18:49:54.601Z,16.23
2023-12-03T18:52:21.513Z,15.17
2023-12-03T18:54:48.250Z,13.47
2023-12-03T18:57:17.083Z,15.37
2023-12-03T18:59:44.395Z,14.07
2023-12-03T19:02:11.119Z,14.87
2023-12-03T19:04:37.873Z,16.17
2023-12-03T19:07:04.715Z,15.20
2023-12-03T19:09:32.260Z,14.50
2023-12-03T19:11:59.034Z,14.20
2023-12-03T19:14:26.423Z,14.07
2023-12-03T19:16:55.835Z,12.50
2023-12-03T19:19:22.655Z,14.87
2023-12-03T19:21:49.821Z,13.47
2023-12-03T19:24:16.685Z,14.00
2023-12-03T19:26:43.480Z,13.57
2023-12-03T19:29:10.133Z,13.17
2023-12-03T19:31:42.224Z,14.83
2023-12-03T19:34:09.528Z,14.77
2023-12-03T19:36:37.543Z,13.23
2023-12-03T19:39:05.496Z,12.93
2023-12-03T19:41:32.705Z,14.20
2023-12-03T19:43:59.371Z,12.00
2023-12-03T19:46:25.959Z,14.87
2023-12-03T19:48:52.870Z,13.90
2023-12-03T19:51:19.543Z,13.50
2023-12-03T19:53:47.073Z,15.47
2023-12-03T19:56:13.838Z,15.80
2023-12-03T19:58:41.262Z,14.83
2023-12-03T20:01:08.079Z,15.27
2023-12-03T20:03:37.414Z,13.37
2023-12-03T20:06:06.027Z,12.60
2023-12-03T20:08:32.724Z,13.77
2023-12-03T20:10:59.504Z,13.57
2023-12-03T20:13:34.483Z,13.87
2023-12-03T20:16:04.494Z,15.17
2023-12-03T20:18:31.509Z,14.60
2023-12-03T20:20:58.149Z,13.90
2023-12-03T20:23:25.128Z,14.10
2023-12-03T20:25:54.321Z,13.97
2023-12-03T20:28:21.564Z,13.27
2023-12-03T20:30:48.558Z,13.40
2023-12-03T20:33:15.545Z,14.10
2023-12-03T20:35:42.372Z,13.27
2023-12-03T20:38:08.937Z,14.97
2023-12-03T20:40:35.773Z,13.10
2023-12-03T20:43:03.594Z,13.83
2023-12-03T20:45:30.473Z,13.83
2023-12-03T20:47:57.690Z,13.80
2023-12-03T20:50:24.352Z,12.50
2023-12-03T20:52:51.689Z,12.97
2023-12-03T20:55:18.687Z,13.77
2023-12-03T20:57:45.372Z,13.67
2023-12-03T21:00:12.920Z,13.80
2023-12-03T21:02:40.277Z,13.00
2023-12-03T21:05:07.311Z,12.73
2023-12-03T21:07:34.770Z,13.77
2023-12-03T21:10:02.177Z,13.10
2023-12-03T21:12:28.853Z,12.77
2023-12-03T21:14:55.461Z,12.73
2023-12-03T21:17:22.872Z,14.40
2023-12-03T21:19:49.672Z,12.93
2023-12-03T21:22:16.961Z,12.80
2023-12-03T21:24:45.360Z,13.70
2023-12-03T21:27:11.948Z,11.37
2023-12-03T21:29:38.763Z,13.30
2023-12-03T21:32:06.773Z,10.30
2023-12-03T21:34:33.725Z,11.20
2023-12-03T21:37:02.306Z,11.63
2023-12-03T21:39:30.509Z,12.20
2023-12-03T21:41:57.520Z,13.83
2023-12-03T21:44:24.106Z,13.23
2023-12-03T21:46:51.618Z,14.30
2023-12-03T21:49:18.241Z,14.40
2023-12-03T21:51:44.907Z,13.70
2023-12-03T21:54:11.491Z,14.00
2023-12-03T21:56:38.136Z,13.90
2023-12-03T21:59:05.225Z,12.40
2023-12-03T22:01:31.833Z,13.60
2023-12-03T22:04:00.788Z,14.20
2023-12-03T22:06:27.499Z,12.90
2023-12-03T22:08:54.122Z,14.13
2023-12-03T22:11:20.726Z,13.93
2023-12-03T22:13:48.441Z,13.03
2023-12-03T22:16:15.054Z,13.70
2023-12-03T22:18:41.668Z,13.80
2023-12-03T22:21:09.166Z,13.97
2023-12-03T22:23:36.783Z,12.23
2023-12-03T22:26:03.444Z,11.03
2023-12-03T22:28:30.018Z,12.57
2023-12-03T22:30:56.613Z,12.50
2023-12-03T22:33:25.117Z,13.40
2023-12-03T22:35:51.811Z,13.27
2023-12-03T22:38:18.626Z,11.90
2023-12-03T22:40:45.192Z,13.73
2023-12-03T22:43:12.085Z,15.40
2023-12-03T22:45:38.729Z,14.27
2023-12-03T22:48:06.639Z,12.10
2023-12-03T22:50:33.254Z,12.90
2023-12-03T22:52:59.808Z,14.03
2023-12-03T22:55:26.433Z,13.03
2023-12-03T22:57:53.070Z,12.03
2023-12-03T23:00:22.001Z,12.53
2023-12-03T23:02:49.241Z,12.20
2023-12-03T23:05:28.359Z,11.40
2023-12-03T23:08:01.799Z,11.90
2023-12-03T23:10:28.427Z,11.97
2023-12-03T23:12:55.101Z,12.57
2023-12-03T23:15:21.676Z,12.57
2023-12-03T23:17:48.351Z,12.93
2023-12-03T23:20:14.996Z,11.53
2023-12-03T23:22:41.772Z,11.00
2023-12-03T23:25:08.554Z,12.57
2023-12-03T23:27:35.344Z,12.27
2023-12-03T23:30:02.261Z,12.40
2023-12-03T23:32:30.813Z,12.83
2023-12-03T23:34:58.841Z,11.53
2023-12-03T23:37:25.894Z,10.20
2023-12-03T23:39:52.498Z,11.60
2023-12-03T23:42:19.437Z,11.20
2023-12-03T23:44:46.031Z,10.70
2023-12-03T23:47:14.419Z,12.17
2023-12-03T23:49:41.034Z,11.53
2023-12-03T23:52:07.739Z,11.50
2023-12-03T23:54:34.617Z,11.50
2023-12-03T23:57:01.678Z,11.00
2023-12-03T23:59:28.648Z,11.50
